sensor_id;sensor_type;location;lat;lon;timestamp;P1;durP1;ratioP1;P2;durP2;ratioP2
32032;SDS011;31720;52.638;9.216;2022-12-07T00:02:53;13.88;;;6.32;;
32032;SDS011;31720;52.638;9.216;2022-12-07T00:05:58;14.80;;;7.20;;
32032;SDS011;31720;52.638;9.216;2022-12-07T00:08:59;13.90;;;7.53;;
32032;SDS011;31720;52.638;9.216;2022-12-07T00:12:01;15.35;;;7.13;;
32032;SDS011;31720;52.638;9.216;2022-12-07T00:15:03;20.08;;;6.63;;
32032;SDS011;31720;52.638;9.216;2022-12-07T00:18:05;19.15;;;8.45;;
32032;SDS011;31720;52.638;9.216;2022-12-07T00:21:09;19.23;;;8.07;;
32032;SDS011;31720;52.638;9.216;2022-12-07T00:24:12;21.83;;;8.75;;
32032;SDS011;31720;52.638;9.216;2022-12-07T00:27:13;17.20;;;7.28;;
32032;SDS011;31720;52.638;9.216;2022-12-07T00:30:15;19.90;;;8.45;;
32032;SDS011;31720;52.638;9.216;2022-12-07T00:33:16;19.52;;;8.35;;
32032;SDS011;31720;52.638;9.216;2022-12-07T00:36:20;19.30;;;8.60;;
32032;SDS011;31720;52.638;9.216;2022-12-07T00:39:22;18.60;;;8.65;;
32032;SDS011;31720;52.638;9.216;2022-12-07T00:42:24;20.85;;;9.05;;
32032;SDS011;31720;52.638;9.216;2022-12-07T00:45:25;20.95;;;8.63;;
32032;SDS011;31720;52.638;9.216;2022-12-07T00:48:26;22.50;;;8.82;;
32032;SDS011;31720;52.638;9.216;2022-12-07T00:51:29;19.25;;;8.38;;
32032;SDS011;31720;52.638;9.216;2022-12-07T00:54:31;13.68;;;7.15;;
32032;SDS011;31720;52.638;9.216;2022-12-07T00:57:32;20.83;;;8.70;;
32032;SDS011;31720;52.638;9.216;2022-12-07T01:00:34;15.85;;;7.82;;
32032;SDS011;31720;52.638;9.216;2022-12-07T01:03:37;16.98;;;8.90;;
32032;SDS011;31720;52.638;9.216;2022-12-07T01:06:40;20.52;;;8.15;;
32032;SDS011;31720;52.638;9.216;2022-12-07T01:09:41;16.50;;;7.70;;
32032;SDS011;31720;52.638;9.216;2022-12-07T01:12:43;15.55;;;7.68;;
32032;SDS011;31720;52.638;9.216;2022-12-07T01:15:44;14.52;;;7.13;;
32032;SDS011;31720;52.638;9.216;2022-12-07T01:18:46;15.88;;;7.60;;
32032;SDS011;31720;52.638;9.216;2022-12-07T01:21:50;15.48;;;7.20;;
32032;SDS011;31720;52.638;9.216;2022-12-07T01:24:51;17.58;;;7.60;;
32032;SDS011;31720;52.638;9.216;2022-12-07T01:27:53;18.65;;;7.65;;
32032;SDS011;31720;52.638;9.216;2022-12-07T01:30:55;18.63;;;6.57;;
32032;SDS011;31720;52.638;9.216;2022-12-07T01:33:58;16.35;;;7.07;;
32032;SDS011;31720;52.638;9.216;2022-12-07T01:37:01;14.40;;;7.90;;
32032;SDS011;31720;52.638;9.216;2022-12-07T01:40:03;13.75;;;6.70;;
32032;SDS011;31720;52.638;9.216;2022-12-07T01:43:08;15.27;;;7.10;;
32032;SDS011;31720;52.638;9.216;2022-12-07T01:46:15;17.23;;;8.65;;
32032;SDS011;31720;52.638;9.216;2022-12-07T01:49:21;13.00;;;6.53;;
32032;SDS011;31720;52.638;9.216;2022-12-07T01:52:29;14.48;;;6.45;;
32032;SDS011;31720;52.638;9.216;2022-12-07T01:55:33;13.80;;;6.03;;
32032;SDS011;31720;52.638;9.216;2022-12-07T01:58:38;16.20;;;7.38;;
32032;SDS011;31720;52.638;9.216;2022-12-07T02:01:39;19.70;;;7.30;;
32032;SDS011;31720;52.638;9.216;2022-12-07T02:04:41;12.38;;;5.13;;
32032;SDS011;31720;52.638;9.216;2022-12-07T02:07:44;13.60;;;5.95;;
32032;SDS011;31720;52.638;9.216;2022-12-07T02:10:48;10.13;;;5.45;;
32032;SDS011;31720;52.638;9.216;2022-12-07T02:13:50;11.32;;;6.10;;
32032;SDS011;31720;52.638;9.216;2022-12-07T02:16:56;12.82;;;4.72;;
32032;SDS011;31720;52.638;9.216;2022-12-07T02:20:15;8.77;;;5.28;;
32032;SDS011;31720;52.638;9.216;2022-12-07T02:23:39;11.98;;;5.25;;
32032;SDS011;31720;52.638;9.216;2022-12-07T02:30:30;13.13;;;5.07;;
32032;SDS011;31720;52.638;9.216;2022-12-07T02:33:36;12.45;;;4.65;;
32032;SDS011;31720;52.638;9.216;2022-12-07T02:36:43;13.20;;;5.50;;
32032;SDS011;31720;52.638;9.216;2022-12-07T02:39:52;9.80;;;4.83;;
32032;SDS011;31720;52.638;9.216;2022-12-07T02:43:00;12.50;;;5.13;;
32032;SDS011;31720;52.638;9.216;2022-12-07T02:46:08;10.30;;;5.10;;
32032;SDS011;31720;52.638;9.216;2022-12-07T02:49:13;11.55;;;4.80;;
32032;SDS011;31720;52.638;9.216;2022-12-07T02:52:16;11.40;;;4.57;;
32032;SDS011;31720;52.638;9.216;2022-12-07T02:55:18;13.70;;;5.85;;
32032;SDS011;31720;52.638;9.216;2022-12-07T02:58:27;12.07;;;5.18;;
32032;SDS011;31720;52.638;9.216;2022-12-07T03:01:41;11.70;;;5.35;;
32032;SDS011;31720;52.638;9.216;2022-12-07T03:04:52;10.93;;;5.20;;
32032;SDS011;31720;52.638;9.216;2022-12-07T03:08:06;11.00;;;5.30;;
32032;SDS011;31720;52.638;9.216;2022-12-07T03:11:13;18.98;;;7.47;;
32032;SDS011;31720;52.638;9.216;2022-12-07T03:14:18;17.25;;;6.75;;
32032;SDS011;31720;52.638;9.216;2022-12-07T03:17:26;16.23;;;7.25;;
32032;SDS011;31720;52.638;9.216;2022-12-07T03:20:31;14.40;;;6.85;;
32032;SDS011;31720;52.638;9.216;2022-12-07T03:23:37;13.00;;;5.57;;
32032;SDS011;31720;52.638;9.216;2022-12-07T03:26:42;15.75;;;5.55;;
32032;SDS011;31720;52.638;9.216;2022-12-07T03:29:48;15.93;;;6.35;;
32032;SDS011;31720;52.638;9.216;2022-12-07T03:32:56;17.85;;;6.55;;
32032;SDS011;31720;52.638;9.216;2022-12-07T03:36:04;10.90;;;5.65;;
32032;SDS011;31720;52.638;9.216;2022-12-07T03:39:13;13.30;;;5.70;;
32032;SDS011;31720;52.638;9.216;2022-12-07T03:42:20;12.93;;;6.63;;
32032;SDS011;31720;52.638;9.216;2022-12-07T03:45:23;12.23;;;5.97;;
32032;SDS011;31720;52.638;9.216;2022-12-07T03:48:33;13.13;;;6.50;;
32032;SDS011;31720;52.638;9.216;2022-12-07T03:51:39;16.60;;;6.07;;
32032;SDS011;31720;52.638;9.216;2022-12-07T03:54:46;11.70;;;5.13;;
32032;SDS011;31720;52.638;9.216;2022-12-07T03:57:51;10.98;;;5.15;;
32032;SDS011;31720;52.638;9.216;2022-12-07T04:00:56;11.65;;;4.03;;
32032;SDS011;31720;52.638;9.216;2022-12-07T04:03:59;12.38;;;5.35;;
32032;SDS011;31720;52.638;9.216;2022-12-07T04:07:00;6.28;;;3.67;;
32032;SDS011;31720;52.638;9.216;2022-12-07T04:10:02;8.65;;;4.90;;
32032;SDS011;31720;52.638;9.216;2022-12-07T04:13:04;8.95;;;4.85;;
32032;SDS011;31720;52.638;9.216;2022-12-07T04:16:05;8.00;;;4.38;;
32032;SDS011;31720;52.638;9.216;2022-12-07T04:19:09;8.20;;;3.92;;
32032;SDS011;31720;52.638;9.216;2022-12-07T04:22:10;11.07;;;3.85;;
32032;SDS011;31720;52.638;9.216;2022-12-07T04:25:11;8.45;;;3.40;;
32032;SDS011;31720;52.638;9.216;2022-12-07T04:28:13;6.55;;;3.13;;
32032;SDS011;31720;52.638;9.216;2022-12-07T04:31:14;5.93;;;3.28;;
32032;SDS011;31720;52.638;9.216;2022-12-07T04:34:17;7.40;;;3.10;;
32032;SDS011;31720;52.638;9.216;2022-12-07T04:37:19;6.07;;;3.20;;
32032;SDS011;31720;52.638;9.216;2022-12-07T04:40:21;8.52;;;3.20;;
32032;SDS011;31720;52.638;9.216;2022-12-07T04:43:22;6.85;;;3.05;;
32032;SDS011;31720;52.638;9.216;2022-12-07T04:46:24;7.57;;;2.83;;
32032;SDS011;31720;52.638;9.216;2022-12-07T04:49:28;7.82;;;2.72;;
32032;SDS011;31720;52.638;9.216;2022-12-07T04:52:29;5.57;;;2.67;;
32032;SDS011;31720;52.638;9.216;2022-12-07T04:55:31;9.93;;;2.58;;
32032;SDS011;31720;52.638;9.216;2022-12-07T04:58:32;6.43;;;3.33;;
32032;SDS011;31720;52.638;9.216;2022-12-07T05:01:34;6.68;;;2.83;;
32032;SDS011;31720;52.638;9.216;2022-12-07T05:04:36;9.70;;;2.85;;
32032;SDS011;31720;52.638;9.216;2022-12-07T05:07:38;8.20;;;3.47;;
32032;SDS011;31720;52.638;9.216;2022-12-07T05:10:39;3.25;;;1.95;;
32032;SDS011;31720;52.638;9.216;2022-12-07T05:13:41;8.23;;;3.63;;
32032;SDS011;31720;52.638;9.216;2022-12-07T05:16:43;7.72;;;2.55;;
32032;SDS011;31720;52.638;9.216;2022-12-07T05:19:47;8.65;;;3.30;;
32032;SDS011;31720;52.638;9.216;2022-12-07T05:22:48;4.82;;;2.47;;
32032;SDS011;31720;52.638;9.216;2022-12-07T05:25:50;5.15;;;2.38;;
32032;SDS011;31720;52.638;9.216;2022-12-07T05:28:51;2.90;;;1.45;;
32032;SDS011;31720;52.638;9.216;2022-12-07T05:31:53;5.18;;;2.00;;
32032;SDS011;31720;52.638;9.216;2022-12-07T05:34:56;7.05;;;2.67;;
32032;SDS011;31720;52.638;9.216;2022-12-07T05:37:57;6.10;;;2.78;;
32032;SDS011;31720;52.638;9.216;2022-12-07T05:40:59;8.88;;;2.40;;
32032;SDS011;31720;52.638;9.216;2022-12-07T05:44:02;5.03;;;1.98;;
32032;SDS011;31720;52.638;9.216;2022-12-07T05:47:04;3.17;;;1.80;;
32032;SDS011;31720;52.638;9.216;2022-12-07T05:50:07;5.00;;;2.10;;
32032;SDS011;31720;52.638;9.216;2022-12-07T05:53:08;3.78;;;2.22;;
32032;SDS011;31720;52.638;9.216;2022-12-07T05:56:10;5.35;;;2.25;;
32032;SDS011;31720;52.638;9.216;2022-12-07T05:59:11;2.80;;;1.48;;
32032;SDS011;31720;52.638;9.216;2022-12-07T06:02:27;5.28;;;1.80;;
32032;SDS011;31720;52.638;9.216;2022-12-07T06:05:29;7.22;;;1.70;;
32032;SDS011;31720;52.638;9.216;2022-12-07T06:08:31;5.38;;;2.10;;
32032;SDS011;31720;52.638;9.216;2022-12-07T06:11:32;4.07;;;1.80;;
32032;SDS011;31720;52.638;9.216;2022-12-07T06:14:52;3.47;;;2.15;;
32032;SDS011;31720;52.638;9.216;2022-12-07T06:17:53;3.92;;;1.65;;
32032;SDS011;31720;52.638;9.216;2022-12-07T06:20:56;4.70;;;1.80;;
32032;SDS011;31720;52.638;9.216;2022-12-07T06:23:57;2.88;;;1.60;;
32032;SDS011;31720;52.638;9.216;2022-12-07T06:26:59;6.43;;;2.00;;
32032;SDS011;31720;52.638;9.216;2022-12-07T06:30:00;3.40;;;1.38;;
32032;SDS011;31720;52.638;9.216;2022-12-07T06:33:06;3.72;;;1.40;;
32032;SDS011;31720;52.638;9.216;2022-12-07T06:36:09;2.92;;;1.13;;
32032;SDS011;31720;52.638;9.216;2022-12-07T06:39:11;1.75;;;0.93;;
32032;SDS011;31720;52.638;9.216;2022-12-07T06:42:13;8.27;;;1.05;;
32032;SDS011;31720;52.638;9.216;2022-12-07T06:45:14;7.88;;;1.73;;
32032;SDS011;31720;52.638;9.216;2022-12-07T06:48:16;2.78;;;0.82;;
32032;SDS011;31720;52.638;9.216;2022-12-07T06:51:18;1.25;;;0.82;;
32032;SDS011;31720;52.638;9.216;2022-12-07T06:54:20;1.55;;;0.70;;
32032;SDS011;31720;52.638;9.216;2022-12-07T06:57:21;1.02;;;0.88;;
32032;SDS011;31720;52.638;9.216;2022-12-07T07:00:23;3.50;;;0.80;;
32032;SDS011;31720;52.638;9.216;2022-12-07T07:03:24;4.13;;;0.82;;
32032;SDS011;31720;52.638;9.216;2022-12-07T07:06:27;0.60;;;0.55;;
32032;SDS011;31720;52.638;9.216;2022-12-07T07:09:28;2.17;;;0.40;;
32032;SDS011;31720;52.638;9.216;2022-12-07T07:12:30;1.65;;;0.52;;
32032;SDS011;31720;52.638;9.216;2022-12-07T07:15:32;1.15;;;0.63;;
32032;SDS011;31720;52.638;9.216;2022-12-07T07:18:34;0.90;;;0.70;;
32032;SDS011;31720;52.638;9.216;2022-12-07T07:21:37;3.47;;;0.93;;
32032;SDS011;31720;52.638;9.216;2022-12-07T07:24:38;0.57;;;0.55;;
32032;SDS011;31720;52.638;9.216;2022-12-07T07:27:40;0.82;;;0.57;;
32032;SDS011;31720;52.638;9.216;2022-12-07T07:30:42;2.50;;;0.88;;
32032;SDS011;31720;52.638;9.216;2022-12-07T07:33:44;1.75;;;0.60;;
32032;SDS011;31720;52.638;9.216;2022-12-07T07:36:47;1.38;;;0.65;;
32032;SDS011;31720;52.638;9.216;2022-12-07T07:39:49;2.05;;;0.80;;
32032;SDS011;31720;52.638;9.216;2022-12-07T07:42:51;4.32;;;0.80;;
32032;SDS011;31720;52.638;9.216;2022-12-07T07:45:53;6.97;;;0.70;;
32032;SDS011;31720;52.638;9.216;2022-12-07T07:48:55;1.77;;;1.42;;
32032;SDS011;31720;52.638;9.216;2022-12-07T07:51:57;4.60;;;0.82;;
32032;SDS011;31720;52.638;9.216;2022-12-07T07:54:59;2.75;;;1.27;;
32032;SDS011;31720;52.638;9.216;2022-12-07T07:58:00;3.33;;;1.20;;
32032;SDS011;31720;52.638;9.216;2022-12-07T08:01:05;1.85;;;1.75;;
32032;SDS011;31720;52.638;9.216;2022-12-07T08:04:07;0.98;;;0.60;;
32032;SDS011;31720;52.638;9.216;2022-12-07T08:07:10;2.28;;;0.90;;
32032;SDS011;31720;52.638;9.216;2022-12-07T08:10:12;1.88;;;0.82;;
32032;SDS011;31720;52.638;9.216;2022-12-07T08:13:16;3.67;;;0.73;;
32032;SDS011;31720;52.638;9.216;2022-12-07T08:16:17;1.23;;;0.60;;
32032;SDS011;31720;52.638;9.216;2022-12-07T08:19:19;2.08;;;0.82;;
32032;SDS011;31720;52.638;9.216;2022-12-07T08:22:22;0.55;;;0.55;;
32032;SDS011;31720;52.638;9.216;2022-12-07T08:25:23;8.10;;;1.25;;
32032;SDS011;31720;52.638;9.216;2022-12-07T08:28:24;5.25;;;0.80;;
32032;SDS011;31720;52.638;9.216;2022-12-07T08:31:26;1.50;;;0.70;;
32032;SDS011;31720;52.638;9.216;2022-12-07T08:34:28;0.57;;;0.57;;
32032;SDS011;31720;52.638;9.216;2022-12-07T08:37:31;1.40;;;0.38;;
32032;SDS011;31720;52.638;9.216;2022-12-07T08:40:33;0.45;;;0.30;;
32032;SDS011;31720;52.638;9.216;2022-12-07T08:43:35;6.40;;;1.27;;
32032;SDS011;31720;52.638;9.216;2022-12-07T08:46:37;0.43;;;0.43;;
32032;SDS011;31720;52.638;9.216;2022-12-07T08:49:46;0.30;;;0.30;;
32032;SDS011;31720;52.638;9.216;2022-12-07T08:52:52;2.15;;;0.70;;
32032;SDS011;31720;52.638;9.216;2022-12-07T08:55:56;1.55;;;0.60;;
32032;SDS011;31720;52.638;9.216;2022-12-07T08:58:58;5.07;;;0.60;;
32032;SDS011;31720;52.638;9.216;2022-12-07T09:01:59;0.73;;;0.60;;
32032;SDS011;31720;52.638;9.216;2022-12-07T09:05:01;1.20;;;0.50;;
32032;SDS011;31720;52.638;9.216;2022-12-07T09:08:04;1.00;;;0.50;;
32032;SDS011;31720;52.638;9.216;2022-12-07T09:11:06;0.70;;;0.57;;
32032;SDS011;31720;52.638;9.216;2022-12-07T09:14:08;6.43;;;0.88;;
32032;SDS011;31720;52.638;9.216;2022-12-07T09:17:10;6.82;;;0.93;;
32032;SDS011;31720;52.638;9.216;2022-12-07T09:20:13;0.68;;;0.40;;
32032;SDS011;31720;52.638;9.216;2022-12-07T09:23:16;3.63;;;1.48;;
32032;SDS011;31720;52.638;9.216;2022-12-07T09:26:18;1.02;;;0.73;;
32032;SDS011;31720;52.638;9.216;2022-12-07T09:29:19;1.08;;;0.60;;
32032;SDS011;31720;52.638;9.216;2022-12-07T09:32:21;0.73;;;0.60;;
32032;SDS011;31720;52.638;9.216;2022-12-07T09:35:23;0.82;;;0.50;;
32032;SDS011;31720;52.638;9.216;2022-12-07T09:38:27;1.40;;;0.73;;
32032;SDS011;31720;52.638;9.216;2022-12-07T09:41:30;1.13;;;1.02;;
32032;SDS011;31720;52.638;9.216;2022-12-07T09:44:33;1.60;;;1.08;;
32032;SDS011;31720;52.638;9.216;2022-12-07T09:47:35;2.20;;;1.40;;
32032;SDS011;31720;52.638;9.216;2022-12-07T09:50:37;2.38;;;1.17;;
32032;SDS011;31720;52.638;9.216;2022-12-07T09:53:40;8.75;;;1.98;;
32032;SDS011;31720;52.638;9.216;2022-12-07T09:56:43;7.88;;;1.88;;
32032;SDS011;31720;52.638;9.216;2022-12-07T09:59:45;1.45;;;1.10;;
32032;SDS011;31720;52.638;9.216;2022-12-07T10:02:47;4.30;;;1.73;;
32032;SDS011;31720;52.638;9.216;2022-12-07T10:05:53;7.93;;;1.45;;
32032;SDS011;31720;52.638;9.216;2022-12-07T10:08:57;3.50;;;2.00;;
32032;SDS011;31720;52.638;9.216;2022-12-07T10:11:59;6.43;;;1.42;;
32032;SDS011;31720;52.638;9.216;2022-12-07T10:15:03;7.80;;;1.17;;
32032;SDS011;31720;52.638;9.216;2022-12-07T10:18:14;5.40;;;1.30;;
32032;SDS011;31720;52.638;9.216;2022-12-07T10:21:19;2.47;;;1.20;;
32032;SDS011;31720;52.638;9.216;2022-12-07T10:24:25;4.18;;;1.00;;
32032;SDS011;31720;52.638;9.216;2022-12-07T10:27:29;1.83;;;1.20;;
32032;SDS011;31720;52.638;9.216;2022-12-07T10:30:32;1.83;;;1.33;;
32032;SDS011;31720;52.638;9.216;2022-12-07T10:33:35;1.48;;;1.10;;
32032;SDS011;31720;52.638;9.216;2022-12-07T10:36:38;1.83;;;1.20;;
32032;SDS011;31720;52.638;9.216;2022-12-07T10:39:42;1.35;;;1.00;;
32032;SDS011;31720;52.638;9.216;2022-12-07T10:42:44;0.75;;;0.60;;
32032;SDS011;31720;52.638;9.216;2022-12-07T10:53:21;1.00;;;0.70;;
32032;SDS011;31720;52.638;9.216;2022-12-07T11:00:07;6.22;;;1.25;;
32032;SDS011;31720;52.638;9.216;2022-12-07T11:03:23;2.63;;;0.60;;
32032;SDS011;31720;52.638;9.216;2022-12-07T11:06:37;2.60;;;0.75;;
32032;SDS011;31720;52.638;9.216;2022-12-07T11:09:47;1.33;;;0.88;;
32032;SDS011;31720;52.638;9.216;2022-12-07T11:16:39;4.90;;;0.90;;
32032;SDS011;31720;52.638;9.216;2022-12-07T11:19:54;2.17;;;1.05;;
32032;SDS011;31720;52.638;9.216;2022-12-07T11:23:09;2.65;;;0.90;;
32032;SDS011;31720;52.638;9.216;2022-12-07T11:26:26;0.77;;;0.63;;
32032;SDS011;31720;52.638;9.216;2022-12-07T11:29:55;2.72;;;1.40;;
32032;SDS011;31720;52.638;9.216;2022-12-07T11:36:33;0.85;;;0.75;;
32032;SDS011;31720;52.638;9.216;2022-12-07T11:39:42;3.85;;;0.57;;
32032;SDS011;31720;52.638;9.216;2022-12-07T11:42:49;2.95;;;1.00;;
32032;SDS011;31720;52.638;9.216;2022-12-07T11:45:58;4.40;;;0.68;;
32032;SDS011;31720;52.638;9.216;2022-12-07T11:49:07;2.60;;;1.33;;
32032;SDS011;31720;52.638;9.216;2022-12-07T11:52:16;1.40;;;1.27;;
32032;SDS011;31720;52.638;9.216;2022-12-07T11:55:24;2.22;;;0.82;;
32032;SDS011;31720;52.638;9.216;2022-12-07T11:58:35;4.10;;;1.00;;
32032;SDS011;31720;52.638;9.216;2022-12-07T12:01:50;2.22;;;1.15;;
32032;SDS011;31720;52.638;9.216;2022-12-07T12:05:02;11.30;;;1.40;;
32032;SDS011;31720;52.638;9.216;2022-12-07T12:08:14;9.00;;;1.10;;
32032;SDS011;31720;52.638;9.216;2022-12-07T12:11:23;4.57;;;0.80;;
32032;SDS011;31720;52.638;9.216;2022-12-07T12:14:40;4.35;;;0.70;;
32032;SDS011;31720;52.638;9.216;2022-12-07T12:17:58;1.10;;;0.65;;
32032;SDS011;31720;52.638;9.216;2022-12-07T12:21:13;9.38;;;1.90;;
32032;SDS011;31720;52.638;9.216;2022-12-07T12:24:19;4.75;;;0.95;;
32032;SDS011;31720;52.638;9.216;2022-12-07T12:27:26;2.50;;;0.70;;
32032;SDS011;31720;52.638;9.216;2022-12-07T12:30:32;6.40;;;1.45;;
32032;SDS011;31720;52.638;9.216;2022-12-07T12:33:37;2.25;;;1.00;;
32032;SDS011;31720;52.638;9.216;2022-12-07T12:36:44;1.70;;;0.60;;
32032;SDS011;31720;52.638;9.216;2022-12-07T12:46:51;1.05;;;0.60;;
32032;SDS011;31720;52.638;9.216;2022-12-07T12:50:12;1.10;;;0.70;;
32032;SDS011;31720;52.638;9.216;2022-12-07T12:53:20;2.00;;;0.70;;
32032;SDS011;31720;52.638;9.216;2022-12-07T12:56:27;1.65;;;0.70;;
32032;SDS011;31720;52.638;9.216;2022-12-07T12:59:40;6.30;;;1.23;;
32032;SDS011;31720;52.638;9.216;2022-12-07T13:02:47;1.23;;;0.85;;
32032;SDS011;31720;52.638;9.216;2022-12-07T13:05:54;0.73;;;0.35;;
32032;SDS011;31720;52.638;9.216;2022-12-07T13:09:20;6.45;;;0.75;;
32032;SDS011;31720;52.638;9.216;2022-12-07T13:12:24;9.43;;;1.42;;
32032;SDS011;31720;52.638;9.216;2022-12-07T13:15:33;4.97;;;1.23;;
32032;SDS011;31720;52.638;9.216;2022-12-07T13:18:37;0.80;;;0.40;;
32032;SDS011;31720;52.638;9.216;2022-12-07T13:21:43;2.83;;;0.30;;
32032;SDS011;31720;52.638;9.216;2022-12-07T13:24:45;1.40;;;1.05;;
32032;SDS011;31720;52.638;9.216;2022-12-07T13:27:48;2.15;;;0.50;;
32032;SDS011;31720;52.638;9.216;2022-12-07T13:31:02;0.70;;;0.57;;
32032;SDS011;31720;52.638;9.216;2022-12-07T13:34:28;12.20;;;0.80;;
32032;SDS011;31720;52.638;9.216;2022-12-07T13:37:33;3.30;;;0.65;;
32032;SDS011;31720;52.638;9.216;2022-12-07T13:40:34;0.38;;;0.20;;
32032;SDS011;31720;52.638;9.216;2022-12-07T13:43:42;1.25;;;0.65;;
32032;SDS011;31720;52.638;9.216;2022-12-07T13:46:47;1.70;;;0.95;;
32032;SDS011;31720;52.638;9.216;2022-12-07T13:49:53;2.20;;;0.65;;
32032;SDS011;31720;52.638;9.216;2022-12-07T13:52:58;7.90;;;0.60;;
32032;SDS011;31720;52.638;9.216;2022-12-07T13:56:00;0.57;;;0.43;;
32032;SDS011;31720;52.638;9.216;2022-12-07T13:59:02;3.38;;;0.52;;
32032;SDS011;31720;52.638;9.216;2022-12-07T14:02:16;2.85;;;0.60;;
32032;SDS011;31720;52.638;9.216;2022-12-07T14:05:23;0.75;;;0.40;;
32032;SDS011;31720;52.638;9.216;2022-12-07T14:08:29;0.77;;;0.40;;
32032;SDS011;31720;52.638;9.216;2022-12-07T14:11:31;2.28;;;0.88;;
32032;SDS011;31720;52.638;9.216;2022-12-07T14:14:32;0.55;;;0.55;;
32032;SDS011;31720;52.638;9.216;2022-12-07T14:17:34;0.80;;;0.52;;
32032;SDS011;31720;52.638;9.216;2022-12-07T14:20:36;2.08;;;0.40;;
32032;SDS011;31720;52.638;9.216;2022-12-07T14:23:40;1.27;;;0.65;;
32032;SDS011;31720;52.638;9.216;2022-12-07T14:26:42;3.03;;;0.65;;
32032;SDS011;31720;52.638;9.216;2022-12-07T14:29:44;5.38;;;0.70;;
32032;SDS011;31720;52.638;9.216;2022-12-07T14:32:46;3.65;;;0.80;;
32032;SDS011;31720;52.638;9.216;2022-12-07T14:35:50;0.52;;;0.43;;
32032;SDS011;31720;52.638;9.216;2022-12-07T14:38:56;3.88;;;0.70;;
32032;SDS011;31720;52.638;9.216;2022-12-07T14:41:59;2.72;;;1.10;;
32032;SDS011;31720;52.638;9.216;2022-12-07T14:45:00;4.90;;;0.73;;
32032;SDS011;31720;52.638;9.216;2022-12-07T14:48:02;0.90;;;0.40;;
32032;SDS011;31720;52.638;9.216;2022-12-07T14:51:04;1.45;;;0.70;;
32032;SDS011;31720;52.638;9.216;2022-12-07T14:54:09;3.65;;;0.45;;
32032;SDS011;31720;52.638;9.216;2022-12-07T14:57:17;0.93;;;0.45;;
32032;SDS011;31720;52.638;9.216;2022-12-07T15:00:19;2.20;;;0.73;;
32032;SDS011;31720;52.638;9.216;2022-12-07T15:03:22;6.57;;;1.00;;
32032;SDS011;31720;52.638;9.216;2022-12-07T15:06:23;4.70;;;1.02;;
32032;SDS011;31720;52.638;9.216;2022-12-07T15:09:26;0.25;;;0.20;;
32032;SDS011;31720;52.638;9.216;2022-12-07T15:12:28;1.38;;;0.30;;
32032;SDS011;31720;52.638;9.216;2022-12-07T15:15:29;2.10;;;0.50;;
32032;SDS011;31720;52.638;9.216;2022-12-07T15:18:30;0.95;;;0.63;;
32032;SDS011;31720;52.638;9.216;2022-12-07T15:21:32;1.00;;;0.70;;
32032;SDS011;31720;52.638;9.216;2022-12-07T15:24:35;5.40;;;1.30;;
32032;SDS011;31720;52.638;9.216;2022-12-07T15:27:36;1.33;;;0.63;;
32032;SDS011;31720;52.638;9.216;2022-12-07T15:30:38;8.13;;;0.70;;
32032;SDS011;31720;52.638;9.216;2022-12-07T15:33:40;0.30;;;0.30;;
32032;SDS011;31720;52.638;9.216;2022-12-07T15:36:41;2.53;;;0.57;;
32032;SDS011;31720;52.638;9.216;2022-12-07T15:39:44;0.60;;;0.40;;
32032;SDS011;31720;52.638;9.216;2022-12-07T15:42:46;4.32;;;0.40;;
32032;SDS011;31720;52.638;9.216;2022-12-07T15:45:49;4.28;;;0.73;;
32032;SDS011;31720;52.638;9.216;2022-12-07T15:48:49;1.92;;;0.88;;
32032;SDS011;31720;52.638;9.216;2022-12-07T15:51:51;1.65;;;0.90;;
32032;SDS011;31720;52.638;9.216;2022-12-07T15:54:54;5.22;;;0.95;;
32032;SDS011;31720;52.638;9.216;2022-12-07T15:57:55;2.13;;;0.93;;
32032;SDS011;31720;52.638;9.216;2022-12-07T16:00:56;2.10;;;0.75;;
32032;SDS011;31720;52.638;9.216;2022-12-07T16:03:58;1.00;;;0.82;;
32032;SDS011;31720;52.638;9.216;2022-12-07T16:07:00;1.00;;;0.60;;
32032;SDS011;31720;52.638;9.216;2022-12-07T16:10:03;6.10;;;1.60;;
32032;SDS011;31720;52.638;9.216;2022-12-07T16:13:05;6.68;;;1.02;;
32032;SDS011;31720;52.638;9.216;2022-12-07T16:16:07;3.50;;;0.90;;
32032;SDS011;31720;52.638;9.216;2022-12-07T16:19:12;3.53;;;1.13;;
32032;SDS011;31720;52.638;9.216;2022-12-07T16:22:14;7.97;;;1.73;;
32032;SDS011;31720;52.638;9.216;2022-12-07T16:25:17;7.30;;;2.00;;
32032;SDS011;31720;52.638;9.216;2022-12-07T16:28:18;0.85;;;0.80;;
32032;SDS011;31720;52.638;9.216;2022-12-07T16:31:20;0.40;;;0.40;;
32032;SDS011;31720;52.638;9.216;2022-12-07T16:34:24;0.88;;;0.68;;
32032;SDS011;31720;52.638;9.216;2022-12-07T16:37:26;1.80;;;0.40;;
32032;SDS011;31720;52.638;9.216;2022-12-07T16:40:28;0.88;;;0.60;;
32032;SDS011;31720;52.638;9.216;2022-12-07T16:43:30;1.20;;;0.60;;
32032;SDS011;31720;52.638;9.216;2022-12-07T16:46:31;1.35;;;0.35;;
32032;SDS011;31720;52.638;9.216;2022-12-07T16:49:33;0.52;;;0.35;;
32032;SDS011;31720;52.638;9.216;2022-12-07T16:52:34;1.35;;;0.55;;
32032;SDS011;31720;52.638;9.216;2022-12-07T16:55:38;3.85;;;1.27;;
32032;SDS011;31720;52.638;9.216;2022-12-07T16:58:40;0.57;;;0.40;;
32032;SDS011;31720;52.638;9.216;2022-12-07T17:01:42;3.10;;;0.43;;
32032;SDS011;31720;52.638;9.216;2022-12-07T17:04:43;2.97;;;0.75;;
32032;SDS011;31720;52.638;9.216;2022-12-07T17:07:44;4.57;;;1.15;;
32032;SDS011;31720;52.638;9.216;2022-12-07T17:10:47;2.28;;;0.55;;
32032;SDS011;31720;52.638;9.216;2022-12-07T17:13:49;2.50;;;0.63;;
32032;SDS011;31720;52.638;9.216;2022-12-07T17:17:08;1.92;;;0.90;;
32032;SDS011;31720;52.638;9.216;2022-12-07T17:20:10;1.85;;;0.80;;
32032;SDS011;31720;52.638;9.216;2022-12-07T17:23:12;2.38;;;0.68;;
32032;SDS011;31720;52.638;9.216;2022-12-07T17:26:15;0.70;;;0.70;;
32032;SDS011;31720;52.638;9.216;2022-12-07T17:29:18;4.78;;;1.30;;
32032;SDS011;31720;52.638;9.216;2022-12-07T17:32:20;2.72;;;1.40;;
32032;SDS011;31720;52.638;9.216;2022-12-07T17:35:21;3.55;;;0.77;;
32032;SDS011;31720;52.638;9.216;2022-12-07T17:38:22;4.53;;;1.13;;
32032;SDS011;31720;52.638;9.216;2022-12-07T17:41:26;1.27;;;0.90;;
32032;SDS011;31720;52.638;9.216;2022-12-07T17:44:46;2.10;;;1.30;;
32032;SDS011;31720;52.638;9.216;2022-12-07T17:47:48;2.30;;;1.52;;
32032;SDS011;31720;52.638;9.216;2022-12-07T17:50:49;11.60;;;3.35;;
32032;SDS011;31720;52.638;9.216;2022-12-07T17:54:09;3.63;;;1.95;;
32032;SDS011;31720;52.638;9.216;2022-12-07T17:57:12;3.47;;;2.08;;
32032;SDS011;31720;52.638;9.216;2022-12-07T18:00:14;5.32;;;2.42;;
32032;SDS011;31720;52.638;9.216;2022-12-07T18:03:16;3.88;;;1.90;;
32032;SDS011;31720;52.638;9.216;2022-12-07T18:06:17;2.35;;;1.25;;
32032;SDS011;31720;52.638;9.216;2022-12-07T18:09:19;3.17;;;1.40;;
32032;SDS011;31720;52.638;9.216;2022-12-07T18:12:23;5.55;;;2.05;;
32032;SDS011;31720;52.638;9.216;2022-12-07T18:15:25;3.80;;;2.10;;
32032;SDS011;31720;52.638;9.216;2022-12-07T18:18:26;2.28;;;1.40;;
32032;SDS011;31720;52.638;9.216;2022-12-07T18:21:28;3.05;;;1.40;;
32032;SDS011;31720;52.638;9.216;2022-12-07T18:24:30;4.00;;;1.70;;
32032;SDS011;31720;52.638;9.216;2022-12-07T18:27:33;3.05;;;1.70;;
32032;SDS011;31720;52.638;9.216;2022-12-07T18:30:35;2.67;;;1.75;;
32032;SDS011;31720;52.638;9.216;2022-12-07T18:33:36;3.50;;;2.55;;
32032;SDS011;31720;52.638;9.216;2022-12-07T18:36:38;2.25;;;1.50;;
32032;SDS011;31720;52.638;9.216;2022-12-07T18:39:41;5.95;;;2.17;;
32032;SDS011;31720;52.638;9.216;2022-12-07T18:42:44;4.60;;;2.13;;
32032;SDS011;31720;52.638;9.216;2022-12-07T18:45:45;2.40;;;1.70;;
32032;SDS011;31720;52.638;9.216;2022-12-07T18:48:48;2.03;;;1.42;;
32032;SDS011;31720;52.638;9.216;2022-12-07T18:51:50;9.38;;;2.17;;
32032;SDS011;31720;52.638;9.216;2022-12-07T18:54:52;5.10;;;1.63;;
32032;SDS011;31720;52.638;9.216;2022-12-07T18:57:55;11.52;;;1.55;;